CZN591 YSSY-YMML
Flight info
| Callsign | CZN591 |
|---|---|
| Flight time | 1h 2m |
| Altitude | 36000 |
| Route | MARUB7/34R WOL H65 LEECE Q29 ML |
| Aircraft | A320/M-SDE3FGHIRWY/LB1 |
Departure
| Time | 2026-05-01 08:51 |
|---|---|
| Airport | Sydney Kingsford Smith International Airport (YSSY) |
Arrival
| Time | 2026-05-01 09:53 |
|---|---|
| Airport | Melbourne Airport (YMML) |
| Time | Latitude | Longitude | Altitude | Speed | Heading |
|---|---|---|---|---|---|
| 2026-05-01 08:28 | -33.93720 | 151.17919 | 29 ft | 0 kts | 58° |
| 2026-05-01 08:39 | -33.93730 | 151.17902 | 30 ft | 4 kts | 57° |
| 2026-05-01 08:39 | -33.93738 | 151.17879 | 30 ft | 4 kts | 79° |
| 2026-05-01 08:40 | -33.93745 | 151.17826 | 30 ft | 4 kts | 84° |
| 2026-05-01 08:40 | -33.93735 | 151.17795 | 30 ft | 4 kts | 164° |
| 2026-05-01 08:40 | -33.93718 | 151.17792 | 30 ft | 4 kts | 188° |
| 2026-05-01 08:41 | -33.93708 | 151.17794 | 30 ft | 0 kts | 194° |
| 2026-05-01 08:43 | -33.93729 | 151.17787 | 30 ft | 8 kts | 195° |
| 2026-05-01 08:43 | -33.93815 | 151.17765 | 30 ft | 16 kts | 181° |
| 2026-05-01 08:43 | -33.93931 | 151.17787 | 29 ft | 18 kts | 167° |
| 2026-05-01 08:43 | -33.94064 | 151.17823 | 29 ft | 21 kts | 167° |
| 2026-05-01 08:44 | -33.94209 | 151.17860 | 30 ft | 21 kts | 167° |
| 2026-05-01 08:44 | -33.94358 | 151.17898 | 30 ft | 23 kts | 168° |
| 2026-05-01 08:44 | -33.94500 | 151.17880 | 30 ft | 17 kts | 181° |
| 2026-05-01 08:44 | -33.94622 | 151.17908 | 30 ft | 19 kts | 166° |
| 2026-05-01 08:45 | -33.94756 | 151.17942 | 30 ft | 21 kts | 168° |
| 2026-05-01 08:45 | -33.94904 | 151.17980 | 30 ft | 23 kts | 168° |
| 2026-05-01 08:45 | -33.95051 | 151.18017 | 30 ft | 20 kts | 167° |
| 2026-05-01 08:45 | -33.95093 | 151.18138 | 30 ft | 19 kts | 78° |
| 2026-05-01 08:46 | -33.95064 | 151.18300 | 30 ft | 21 kts | 77° |
| 2026-05-01 08:46 | -33.95044 | 151.18467 | 30 ft | 20 kts | 103° |
| 2026-05-01 08:46 | -33.95146 | 151.18576 | 30 ft | 21 kts | 137° |
| 2026-05-01 08:46 | -33.95261 | 151.18686 | 30 ft | 21 kts | 159° |
| 2026-05-01 08:47 | -33.95412 | 151.18744 | 30 ft | 24 kts | 167° |
| 2026-05-01 08:47 | -33.95564 | 151.18784 | 30 ft | 21 kts | 168° |
| 2026-05-01 08:47 | -33.95714 | 151.18823 | 30 ft | 23 kts | 168° |
| 2026-05-01 08:47 | -33.95879 | 151.18865 | 30 ft | 25 kts | 168° |
| 2026-05-01 08:48 | -33.96055 | 151.18912 | 30 ft | 27 kts | 168° |
| 2026-05-01 08:48 | -33.96243 | 151.18960 | 30 ft | 28 kts | 168° |
| 2026-05-01 08:48 | -33.96443 | 151.19012 | 30 ft | 30 kts | 168° |
| 2026-05-01 08:48 | -33.96622 | 151.19058 | 30 ft | 24 kts | 168° |
| 2026-05-01 08:49 | -33.96784 | 151.19063 | 30 ft | 23 kts | 186° |
| 2026-05-01 08:49 | -33.96934 | 151.19095 | 30 ft | 19 kts | 166° |
| 2026-05-01 08:49 | -33.97065 | 151.19128 | 30 ft | 19 kts | 166° |
| 2026-05-01 08:49 | -33.97131 | 151.19189 | 30 ft | 9 kts | 96° |
| 2026-05-01 08:50 | -33.97128 | 151.19223 | 30 ft | 1 kts | 82° |
| 2026-05-01 08:50 | -33.97124 | 151.19247 | 29 ft | 5 kts | 75° |
| 2026-05-01 08:50 | -33.97102 | 151.19317 | 26 ft | 14 kts | 67° |
| 2026-05-01 08:50 | -33.97054 | 151.19372 | 27 ft | 0 kts | 351° |
| 2026-05-01 08:51 | -33.96986 | 151.19354 | 24 ft | 43 kts | 348° |
| 2026-05-01 08:51 | -33.96389 | 151.19200 | 27 ft | 127 kts | 348° |
| 2026-05-01 08:51 | -33.95314 | 151.18916 | 99 ft | 181 kts | 348° |
| 2026-05-01 08:51 | -33.94080 | 151.18612 | 869 ft | 180 kts | 2° |
| 2026-05-01 08:52 | -33.92977 | 151.19164 | 1775 ft | 175 kts | 48° |
| 2026-05-01 08:52 | -33.92488 | 151.20461 | 2425 ft | 175 kts | 84° |
| 2026-05-01 08:52 | -33.92789 | 151.21893 | 2970 ft | 182 kts | 115° |
| 2026-05-01 08:52 | -33.93397 | 151.23220 | 3526 ft | 184 kts | 115° |
| 2026-05-01 08:53 | -33.93822 | 151.24661 | 4064 ft | 183 kts | 93° |
| 2026-05-01 08:53 | -33.93814 | 151.26196 | 4611 ft | 184 kts | 85° |
| 2026-05-01 08:53 | -33.93768 | 151.27776 | 5035 ft | 197 kts | 85° |
| 2026-05-01 08:53 | -33.93713 | 151.29518 | 5273 ft | 219 kts | 86° |
| 2026-05-01 08:54 | -33.93654 | 151.31429 | 5605 ft | 238 kts | 86° |
| 2026-05-01 08:54 | -33.93595 | 151.33455 | 6267 ft | 244 kts | 86° |
| 2026-05-01 08:54 | -33.93575 | 151.35511 | 6979 ft | 251 kts | 94° |
| 2026-05-01 08:54 | -33.94161 | 151.37580 | 7409 ft | 274 kts | 122° |
| 2026-05-01 08:55 | -33.95622 | 151.39104 | 8079 ft | 287 kts | 154° |
| 2026-05-01 08:55 | -33.97602 | 151.39524 | 8797 ft | 297 kts | 186° |
| 2026-05-01 08:55 | -33.99528 | 151.38629 | 9535 ft | 302 kts | 216° |
| 2026-05-01 08:55 | -34.01185 | 151.37052 | 10307 ft | 305 kts | 221° |
| 2026-05-01 08:56 | -34.02817 | 151.35329 | 10711 ft | 322 kts | 223° |
| 2026-05-01 08:56 | -34.04537 | 151.33445 | 10879 ft | 346 kts | 223° |
| 2026-05-01 08:56 | -34.06373 | 151.31429 | 11005 ft | 368 kts | 223° |
| 2026-05-01 08:56 | -34.08324 | 151.29315 | 11302 ft | 383 kts | 222° |
| 2026-05-01 08:57 | -34.10333 | 151.27172 | 11881 ft | 388 kts | 221° |
| 2026-05-01 08:57 | -34.12372 | 151.25019 | 12523 ft | 391 kts | 221° |
| 2026-05-01 08:57 | -34.14431 | 151.22859 | 13155 ft | 394 kts | 221° |
| 2026-05-01 08:57 | -34.16516 | 151.20678 | 13759 ft | 398 kts | 221° |
| 2026-05-01 08:58 | -34.18592 | 151.18505 | 14342 ft | 402 kts | 221° |
| 2026-05-01 08:58 | -34.20709 | 151.16282 | 14922 ft | 404 kts | 221° |
| 2026-05-01 08:58 | -34.22837 | 151.14043 | 15463 ft | 408 kts | 221° |
| 2026-05-01 08:58 | -34.24984 | 151.11782 | 16016 ft | 411 kts | 221° |
| 2026-05-01 08:59 | -34.27143 | 151.09505 | 16591 ft | 413 kts | 221° |
| 2026-05-01 08:59 | -34.29318 | 151.07204 | 17149 ft | 417 kts | 221° |
| 2026-05-01 08:59 | -34.31507 | 151.04890 | 17748 ft | 420 kts | 221° |
| 2026-05-01 08:59 | -34.33720 | 151.02553 | 18336 ft | 423 kts | 221° |
| 2026-05-01 09:00 | -34.35942 | 151.00208 | 18889 ft | 425 kts | 221° |
| 2026-05-01 09:00 | -34.38174 | 150.97845 | 19400 ft | 428 kts | 222° |
| 2026-05-01 09:00 | -34.40420 | 150.95463 | 19902 ft | 430 kts | 222° |
| 2026-05-01 09:00 | -34.42674 | 150.93068 | 20417 ft | 432 kts | 222° |
| 2026-05-01 09:01 | -34.44940 | 150.90660 | 20893 ft | 434 kts | 222° |
| 2026-05-01 09:01 | -34.47216 | 150.88246 | 21368 ft | 436 kts | 222° |
| 2026-05-01 09:01 | -34.49505 | 150.85809 | 21809 ft | 438 kts | 223° |
| 2026-05-01 09:01 | -34.51801 | 150.83362 | 22218 ft | 441 kts | 222° |
| 2026-05-01 09:02 | -34.54111 | 150.80902 | 22627 ft | 443 kts | 223° |
| 2026-05-01 09:02 | -34.56274 | 150.78248 | 23011 ft | 444 kts | 231° |
| 2026-05-01 09:02 | -34.58137 | 150.75261 | 23404 ft | 445 kts | 235° |
| 2026-05-01 09:02 | -34.59965 | 150.72224 | 23812 ft | 446 kts | 236° |
| 2026-05-01 09:03 | -34.61798 | 150.69177 | 24160 ft | 448 kts | 236° |
| 2026-05-01 09:03 | -34.63638 | 150.66117 | 24463 ft | 450 kts | 236° |
| 2026-05-01 09:03 | -34.65486 | 150.63046 | 24768 ft | 452 kts | 235° |
| 2026-05-01 09:03 | -34.67347 | 150.59953 | 25070 ft | 454 kts | 235° |
| 2026-05-01 09:04 | -34.69216 | 150.56844 | 25355 ft | 456 kts | 236° |
| 2026-05-01 09:04 | -34.71095 | 150.53719 | 25652 ft | 458 kts | 236° |
| 2026-05-01 09:04 | -34.72975 | 150.50585 | 25950 ft | 460 kts | 235° |
| 2026-05-01 09:04 | -34.74863 | 150.47430 | 26236 ft | 462 kts | 236° |
| 2026-05-01 09:05 | -34.76727 | 150.44311 | 26638 ft | 461 kts | 236° |
| 2026-05-01 09:05 | -34.78611 | 150.41156 | 27059 ft | 460 kts | 236° |
| 2026-05-01 09:05 | -34.80496 | 150.38002 | 27476 ft | 460 kts | 236° |
| 2026-05-01 09:05 | -34.82375 | 150.34856 | 27904 ft | 459 kts | 236° |
| 2026-05-01 09:06 | -34.84252 | 150.31712 | 28331 ft | 459 kts | 236° |
| 2026-05-01 09:06 | -34.86128 | 150.28571 | 28762 ft | 458 kts | 236° |
| 2026-05-01 09:06 | -34.88000 | 150.25433 | 29213 ft | 458 kts | 236° |
| 2026-05-01 09:06 | -34.89868 | 150.22293 | 29649 ft | 457 kts | 236° |
| 2026-05-01 09:07 | -34.91729 | 150.19162 | 30100 ft | 456 kts | 236° |
| 2026-05-01 09:07 | -34.93588 | 150.16030 | 30539 ft | 456 kts | 236° |
| 2026-05-01 09:07 | -34.95445 | 150.12901 | 30923 ft | 455 kts | 236° |
| 2026-05-01 09:07 | -34.97295 | 150.09780 | 31348 ft | 453 kts | 237° |
| 2026-05-01 09:08 | -34.99138 | 150.06664 | 31751 ft | 452 kts | 237° |
| 2026-05-01 09:08 | -35.00973 | 150.03560 | 32165 ft | 451 kts | 237° |
| 2026-05-01 09:08 | -35.02805 | 150.00460 | 32600 ft | 449 kts | 237° |
| 2026-05-01 09:08 | -35.04627 | 149.97380 | 33038 ft | 447 kts | 237° |
| 2026-05-01 09:09 | -35.06444 | 149.94307 | 33481 ft | 445 kts | 237° |
| 2026-05-01 09:09 | -35.08251 | 149.91246 | 33929 ft | 443 kts | 237° |
| 2026-05-01 09:09 | -35.10050 | 149.88197 | 34385 ft | 441 kts | 236° |
| 2026-05-01 09:09 | -35.11835 | 149.85170 | 34879 ft | 436 kts | 236° |
| 2026-05-01 09:10 | -35.13599 | 149.82178 | 35282 ft | 433 kts | 236° |
| 2026-05-01 09:10 | -35.15358 | 149.79189 | 35610 ft | 432 kts | 237° |
| 2026-05-01 09:10 | -35.17110 | 149.76208 | 35920 ft | 431 kts | 237° |
| 2026-05-01 09:10 | -35.18831 | 149.73268 | 36220 ft | 431 kts | 237° |
| 2026-05-01 09:11 | -35.20597 | 149.70246 | 36361 ft | 432 kts | 237° |
| 2026-05-01 09:11 | -35.22352 | 149.67239 | 36385 ft | 438 kts | 237° |
| 2026-05-01 09:11 | -35.25925 | 149.61125 | 36388 ft | 444 kts | 236° |
| 2026-05-01 09:12 | -35.29499 | 149.55025 | 36382 ft | 444 kts | 236° |
| 2026-05-01 09:12 | -35.33090 | 149.48875 | 36384 ft | 444 kts | 237° |
| 2026-05-01 09:13 | -35.36672 | 149.42716 | 36384 ft | 444 kts | 237° |
| 2026-05-01 09:13 | -35.40250 | 149.36547 | 36388 ft | 444 kts | 237° |
| 2026-05-01 09:14 | -35.43829 | 149.30366 | 36394 ft | 445 kts | 237° |
| 2026-05-01 09:14 | -35.47418 | 149.24168 | 36391 ft | 445 kts | 237° |
| 2026-05-01 09:15 | -35.51005 | 149.17960 | 36394 ft | 446 kts | 237° |
| 2026-05-01 09:15 | -35.54597 | 149.11749 | 36398 ft | 446 kts | 237° |
| 2026-05-01 09:16 | -35.58186 | 149.05525 | 36405 ft | 446 kts | 237° |
| 2026-05-01 09:17 | -35.63552 | 148.96179 | 36408 ft | 446 kts | 237° |
| 2026-05-01 09:17 | -35.68915 | 148.86824 | 36414 ft | 446 kts | 237° |
| 2026-05-01 09:18 | -35.74266 | 148.77462 | 36413 ft | 446 kts | 237° |
| 2026-05-01 09:19 | -35.79583 | 148.68125 | 36416 ft | 446 kts | 237° |
| 2026-05-01 09:20 | -35.84914 | 148.58744 | 36412 ft | 445 kts | 237° |
| 2026-05-01 09:21 | -35.92004 | 148.46218 | 36408 ft | 445 kts | 237° |
| 2026-05-01 09:21 | -35.97294 | 148.36805 | 36403 ft | 445 kts | 237° |
| 2026-05-01 09:22 | -36.04336 | 148.24250 | 36384 ft | 445 kts | 237° |
| 2026-05-01 09:23 | -36.09614 | 148.14805 | 36386 ft | 444 kts | 238° |
| 2026-05-01 09:24 | -36.14851 | 148.05411 | 36379 ft | 444 kts | 237° |
| 2026-05-01 09:25 | -36.21886 | 147.92843 | 36368 ft | 444 kts | 238° |
| 2026-05-01 09:26 | -36.27137 | 147.83408 | 36379 ft | 443 kts | 238° |
| 2026-05-01 09:26 | -36.32365 | 147.73968 | 36367 ft | 442 kts | 238° |
| 2026-05-01 09:27 | -36.37587 | 147.64516 | 36358 ft | 442 kts | 238° |
| 2026-05-01 09:28 | -36.40473 | 147.59278 | 36369 ft | 442 kts | 238° |
| 2026-05-01 09:28 | -36.43933 | 147.52979 | 36363 ft | 442 kts | 238° |
| 2026-05-01 09:29 | -36.49116 | 147.43516 | 36361 ft | 441 kts | 238° |
| 2026-05-01 09:30 | -36.54305 | 147.34059 | 36359 ft | 441 kts | 238° |
| 2026-05-01 09:30 | -36.59464 | 147.24591 | 36356 ft | 441 kts | 238° |
| 2026-05-01 09:31 | -36.62880 | 147.18312 | 36360 ft | 440 kts | 238° |
| 2026-05-01 09:32 | -36.68037 | 147.08837 | 36361 ft | 440 kts | 238° |
| 2026-05-01 09:32 | -36.73171 | 146.99348 | 36354 ft | 440 kts | 238° |
| 2026-05-01 09:33 | -36.76586 | 146.93023 | 36358 ft | 440 kts | 239° |
| 2026-05-01 09:34 | -36.81702 | 146.83523 | 36359 ft | 440 kts | 239° |
| 2026-05-01 09:34 | -36.86820 | 146.74014 | 36359 ft | 440 kts | 239° |
| 2026-05-01 09:35 | -36.91923 | 146.64488 | 36355 ft | 440 kts | 239° |
| 2026-05-01 09:36 | -36.95320 | 146.58129 | 36351 ft | 440 kts | 239° |
| 2026-05-01 09:36 | -36.98718 | 146.51766 | 36342 ft | 440 kts | 239° |
| 2026-05-01 09:36 | -37.00412 | 146.48586 | 36108 ft | 439 kts | 239° |
| 2026-05-01 09:37 | -37.02104 | 146.45408 | 35862 ft | 438 kts | 239° |
| 2026-05-01 09:37 | -37.05486 | 146.39044 | 34681 ft | 441 kts | 239° |
| 2026-05-01 09:37 | -37.07187 | 146.35833 | 33784 ft | 444 kts | 239° |
| 2026-05-01 09:38 | -37.10625 | 146.29349 | 31954 ft | 449 kts | 238° |
| 2026-05-01 09:38 | -37.12358 | 146.26079 | 31062 ft | 452 kts | 238° |
| 2026-05-01 09:38 | -37.14084 | 146.22825 | 30064 ft | 456 kts | 238° |
| 2026-05-01 09:39 | -37.17620 | 146.16135 | 27881 ft | 463 kts | 238° |
| 2026-05-01 09:39 | -37.19405 | 146.12743 | 26722 ft | 468 kts | 238° |
| 2026-05-01 09:39 | -37.21207 | 146.09316 | 25515 ft | 473 kts | 239° |
| 2026-05-01 09:40 | -37.23029 | 146.05848 | 24349 ft | 478 kts | 239° |
| 2026-05-01 09:40 | -37.26697 | 145.98856 | 22213 ft | 475 kts | 239° |
| 2026-05-01 09:40 | -37.28501 | 145.95418 | 21294 ft | 469 kts | 239° |
| 2026-05-01 09:41 | -37.30287 | 145.92014 | 20387 ft | 465 kts | 239° |
| 2026-05-01 09:41 | -37.33818 | 145.85294 | 18603 ft | 457 kts | 239° |
| 2026-05-01 09:41 | -37.35562 | 145.81974 | 17656 ft | 453 kts | 239° |
| 2026-05-01 09:42 | -37.37286 | 145.78694 | 16794 ft | 447 kts | 239° |
| 2026-05-01 09:42 | -37.38986 | 145.75453 | 15941 ft | 442 kts | 239° |
| 2026-05-01 09:42 | -37.42332 | 145.69061 | 14387 ft | 432 kts | 239° |
| 2026-05-01 09:43 | -37.45597 | 145.62790 | 12788 ft | 425 kts | 239° |
| 2026-05-01 09:43 | -37.47212 | 145.59696 | 12126 ft | 419 kts | 239° |
| 2026-05-01 09:43 | -37.48816 | 145.56640 | 11526 ft | 414 kts | 239° |
| 2026-05-01 09:44 | -37.51828 | 145.50924 | 11280 ft | 375 kts | 239° |
| 2026-05-01 09:44 | -37.53238 | 145.48245 | 11161 ft | 358 kts | 239° |
| 2026-05-01 09:44 | -37.54583 | 145.45682 | 11035 ft | 344 kts | 239° |
| 2026-05-01 09:45 | -37.55874 | 145.43213 | 10908 ft | 331 kts | 239° |
| 2026-05-01 09:45 | -37.58318 | 145.38530 | 10655 ft | 309 kts | 240° |
| 2026-05-01 09:45 | -37.59490 | 145.36278 | 10349 ft | 306 kts | 240° |
| 2026-05-01 09:46 | -37.60649 | 145.34047 | 10114 ft | 301 kts | 240° |
| 2026-05-01 09:46 | -37.61793 | 145.31844 | 9931 ft | 300 kts | 240° |
| 2026-05-01 09:46 | -37.62955 | 145.29596 | 9252 ft | 311 kts | 240° |
| 2026-05-01 09:46 | -37.64126 | 145.27339 | 9040 ft | 303 kts | 240° |
| 2026-05-01 09:47 | -37.65260 | 145.25162 | 9001 ft | 290 kts | 240° |
| 2026-05-01 09:47 | -37.66346 | 145.23088 | 9003 ft | 276 kts | 240° |
| 2026-05-01 09:47 | -37.67380 | 145.21117 | 8999 ft | 263 kts | 240° |
| 2026-05-01 09:47 | -37.68358 | 145.19244 | 9004 ft | 250 kts | 240° |
| 2026-05-01 09:48 | -37.69303 | 145.17424 | 9010 ft | 247 kts | 240° |
| 2026-05-01 09:48 | -37.70248 | 145.15597 | 8724 ft | 254 kts | 240° |
| 2026-05-01 09:48 | -37.71244 | 145.13664 | 8024 ft | 271 kts | 240° |
| 2026-05-01 09:48 | -37.72182 | 145.11542 | 7305 ft | 283 kts | 253° |
| 2026-05-01 09:49 | -37.72593 | 145.09084 | 6570 ft | 291 kts | 271° |
| 2026-05-01 09:49 | -37.72658 | 145.06477 | 5771 ft | 303 kts | 272° |
| 2026-05-01 09:49 | -37.72724 | 145.03770 | 4951 ft | 310 kts | 272° |
| 2026-05-01 09:49 | -37.72797 | 145.01062 | 4199 ft | 306 kts | 272° |
| 2026-05-01 09:50 | -37.72876 | 144.98428 | 3700 ft | 294 kts | 272° |
| 2026-05-01 09:50 | -37.73035 | 144.95957 | 3251 ft | 272 kts | 268° |
| 2026-05-01 09:50 | -37.73365 | 144.93677 | 2866 ft | 255 kts | 261° |
| 2026-05-01 09:50 | -37.73865 | 144.91647 | 2605 ft | 226 kts | 255° |
| 2026-05-01 09:51 | -37.74363 | 144.89901 | 2321 ft | 198 kts | 256° |
| 2026-05-01 09:51 | -37.74642 | 144.88356 | 2229 ft | 167 kts | 276° |
| 2026-05-01 09:51 | -37.74529 | 144.86963 | 2132 ft | 152 kts | 297° |
| 2026-05-01 09:51 | -37.74096 | 144.85817 | 1995 ft | 139 kts | 318° |
| 2026-05-01 09:52 | -37.73396 | 144.85030 | 1631 ft | 133 kts | 341° |
| 2026-05-01 09:52 | -37.72501 | 144.84800 | 1206 ft | 134 kts | 359° |
| 2026-05-01 09:52 | -37.71564 | 144.84651 | 945 ft | 135 kts | 356° |
| 2026-05-01 09:52 | -37.70620 | 144.84475 | 773 ft | 138 kts | 354° |
| 2026-05-01 09:53 | -37.69670 | 144.84291 | 599 ft | 138 kts | 355° |
| 2026-05-01 09:53 | -37.68725 | 144.84118 | 406 ft | 136 kts | 355° |
| 2026-05-01 09:53 | -37.67823 | 144.83960 | 358 ft | 117 kts | 352° |
| 2026-05-01 09:53 | -37.67289 | 144.83862 | 376 ft | 39 kts | 351° |
| 2026-05-01 09:54 | -37.67036 | 144.83834 | 385 ft | 34 kts | 5° |
| 2026-05-01 09:54 | -37.66862 | 144.83901 | 391 ft | 18 kts | 22° |
| 2026-05-01 09:54 | -37.66797 | 144.83933 | 392 ft | 9 kts | 21° |
| 2026-05-01 09:54 | -37.66765 | 144.83953 | 394 ft | 5 kts | 32° |
| 2026-05-01 09:55 | -37.66724 | 144.84023 | 395 ft | 16 kts | 70° |
| 2026-05-01 09:55 | -37.66741 | 144.84141 | 392 ft | 15 kts | 122° |
| 2026-05-01 09:55 | -37.66841 | 144.84202 | 390 ft | 18 kts | 172° |
| 2026-05-01 09:55 | -37.66969 | 144.84227 | 387 ft | 19 kts | 169° |
| 2026-05-01 09:56 | -37.67106 | 144.84252 | 384 ft | 20 kts | 171° |
| 2026-05-01 09:56 | -37.67209 | 144.84308 | 382 ft | 12 kts | 84° |
| 2026-05-01 09:56 | -37.67198 | 144.84417 | 384 ft | 13 kts | 88° |
| 2026-05-01 09:56 | -37.67210 | 144.84535 | 385 ft | 14 kts | 84° |
| 2026-05-01 09:57 | -37.67195 | 144.84657 | 387 ft | 13 kts | 82° |
| 2026-05-01 09:57 | -37.67237 | 144.84709 | 387 ft | 7 kts | 172° |
| 2026-05-01 09:57 | -37.67263 | 144.84714 | 386 ft | 0 kts | 171° |
| 2026-05-01 10:10 | -37.67253 | 144.84712 | 387 ft | 4 kts | 171° |
| 2026-05-01 10:10 | -37.67199 | 144.84702 | 388 ft | 4 kts | 171° |
| 2026-05-01 10:11 | -37.67209 | 144.84704 | 388 ft | 9 kts | 171° |
| 2026-05-01 10:11 | -37.67191 | 144.84699 | 388 ft | 9 kts | 162° |
| 2026-05-01 10:11 | -37.67198 | 144.84640 | 387 ft | 12 kts | 261° |
| 2026-05-01 10:11 | -37.67211 | 144.84546 | 386 ft | 14 kts | 258° |
| 2026-05-01 10:12 | -37.67204 | 144.84466 | 385 ft | 10 kts | 295° |
| 2026-05-01 10:12 | -37.67198 | 144.84419 | 384 ft | 11 kts | 267° |
| 2026-05-01 10:12 | -37.67295 | 144.84287 | 380 ft | 16 kts | 172° |
| 2026-05-01 10:13 | -37.67402 | 144.84307 | 378 ft | 16 kts | 172° |
| 2026-05-01 10:13 | -37.67479 | 144.84334 | 376 ft | 14 kts | 116° |
| 2026-05-01 10:13 | -37.67469 | 144.84441 | 378 ft | 16 kts | 82° |
| 2026-05-01 10:14 | -37.67450 | 144.84610 | 381 ft | 5 kts | 82° |
| 2026-05-01 10:14 | -37.67437 | 144.84717 | 382 ft | 10 kts | 81° |
| 2026-05-01 10:14 | -37.67454 | 144.84775 | 382 ft | 6 kts | 167° |
| 2026-05-01 10:14 | -37.67499 | 144.84785 | 380 ft | 7 kts | 171° |
| 2026-05-01 10:15 | -37.67528 | 144.84791 | 380 ft | 1 kts | 171° |